createdAt,value
2023-01-31T00:00:39.802Z,8.87
2023-01-31T00:03:06.651Z,6.73
2023-01-31T00:05:38.284Z,8.00
2023-01-31T00:08:06.011Z,9.47
2023-01-31T00:10:36.229Z,10.37
2023-01-31T00:13:10.099Z,11.40
2023-01-31T00:15:37.335Z,11.57
2023-01-31T00:18:06.697Z,5.43
2023-01-31T00:20:33.727Z,5.20
2023-01-31T00:23:00.532Z,7.13
2023-01-31T00:25:32.027Z,5.07
2023-01-31T00:27:58.954Z,8.40
2023-01-31T00:30:28.242Z,13.20
2023-01-31T00:32:57.170Z,7.10
2023-01-31T00:35:27.362Z,5.33
2023-01-31T00:37:54.442Z,7.83
2023-01-31T00:40:21.367Z,7.27
2023-01-31T00:42:48.302Z,5.80
2023-01-31T00:45:15.305Z,4.97
2023-01-31T00:47:42.166Z,10.93
2023-01-31T00:50:14.858Z,5.20
2023-01-31T00:52:42.003Z,4.37
2023-01-31T00:55:11.773Z,9.13
2023-01-31T00:57:41.918Z,6.53
2023-01-31T01:00:09.930Z,4.73
2023-01-31T01:02:38.833Z,10.33
2023-01-31T01:05:07.909Z,11.13
2023-01-31T01:07:41.513Z,6.03
2023-01-31T01:10:14.108Z,4.20
2023-01-31T01:12:40.999Z,4.73
2023-01-31T01:15:10.714Z,6.80
2023-01-31T01:17:37.665Z,4.53
2023-01-31T01:20:05.246Z,7.73
2023-01-31T01:22:37.044Z,5.47
2023-01-31T01:25:10.031Z,5.40
2023-01-31T01:27:41.541Z,5.50
2023-01-31T01:30:09.783Z,5.37
2023-01-31T01:32:39.105Z,9.00
2023-01-31T01:35:07.930Z,5.00
2023-01-31T01:37:36.971Z,11.60
2023-01-31T01:40:07.033Z,6.00
2023-01-31T01:42:36.323Z,6.40
2023-01-31T01:45:15.852Z,8.40
2023-01-31T01:48:06.757Z,8.83
2023-01-31T01:50:42.237Z,9.80
2023-01-31T01:53:16.180Z,5.77
2023-01-31T01:56:05.909Z,4.37
2023-01-31T01:58:42.778Z,6.10
2023-01-31T02:01:13.726Z,6.93
2023-01-31T02:03:41.771Z,5.20
2023-01-31T02:06:11.687Z,5.47
2023-01-31T02:08:44.437Z,8.53
2023-01-31T02:11:31.092Z,4.30
2023-01-31T02:14:09.880Z,7.17
2023-01-31T02:16:41.374Z,11.33
2023-01-31T02:19:26.607Z,6.20
2023-01-31T02:22:15.296Z,7.47
2023-01-31T02:24:44.922Z,9.00
2023-01-31T02:27:49.093Z,7.43
2023-01-31T02:31:25.283Z,8.50
2023-01-31T02:34:14.284Z,11.30
2023-01-31T02:37:33.867Z,6.43
2023-01-31T02:40:40.136Z,8.87
2023-01-31T02:43:56.688Z,15.43
2023-01-31T02:46:58.118Z,8.47
2023-01-31T02:49:39.534Z,4.17
2023-01-31T02:52:31.525Z,6.07
2023-01-31T02:55:48.387Z,10.07
2023-01-31T02:58:21.486Z,5.37
2023-01-31T03:00:57.740Z,6.17
2023-01-31T03:03:33.618Z,10.87
2023-01-31T03:06:36.783Z,9.10
2023-01-31T03:09:24.849Z,5.47
2023-01-31T03:12:27.391Z,6.07
2023-01-31T03:15:25.551Z,10.63
2023-01-31T03:18:15.620Z,5.03
2023-01-31T03:21:08.298Z,5.63
2023-01-31T03:23:44.107Z,8.50
2023-01-31T03:26:15.552Z,4.57
2023-01-31T03:28:47.088Z,7.23
2023-01-31T03:31:27.472Z,11.07
2023-01-31T03:34:06.490Z,6.63
2023-01-31T03:37:05.020Z,7.57
2023-01-31T03:40:01.598Z,9.90
2023-01-31T03:42:53.637Z,6.73
2023-01-31T03:45:49.424Z,8.97
2023-01-31T03:48:28.528Z,6.20
2023-01-31T03:51:18.038Z,7.60
2023-01-31T03:54:01.927Z,11.00
2023-01-31T03:57:16.088Z,12.17
2023-01-31T03:59:48.334Z,13.57
2023-01-31T04:02:18.361Z,5.70
2023-01-31T04:05:00.488Z,7.70
2023-01-31T04:07:29.832Z,7.73
2023-01-31T04:09:56.688Z,8.03
2023-01-31T04:12:23.744Z,7.83
2023-01-31T04:14:53.083Z,13.30
2023-01-31T04:17:22.314Z,9.83
2023-01-31T04:19:51.400Z,9.17
2023-01-31T04:22:18.201Z,9.80
2023-01-31T04:24:49.517Z,9.67
2023-01-31T04:27:16.392Z,6.60
2023-01-31T04:29:50.562Z,12.03
2023-01-31T04:32:20.553Z,6.97
2023-01-31T04:34:47.379Z,9.00
2023-01-31T04:37:16.300Z,8.17
2023-01-31T04:39:47.283Z,9.37
2023-01-31T04:42:14.122Z,5.50
2023-01-31T04:44:40.996Z,6.77
2023-01-31T04:47:07.954Z,6.97
2023-01-31T04:49:37.010Z,13.10
2023-01-31T04:52:10.857Z,4.93
2023-01-31T04:54:37.837Z,8.47
2023-01-31T04:57:06.988Z,11.63
2023-01-31T04:59:36.164Z,10.67
2023-01-31T05:02:05.466Z,6.67
2023-01-31T05:04:35.285Z,16.33
2023-01-31T05:07:02.072Z,8.73
2023-01-31T05:09:31.560Z,12.10
2023-01-31T05:11:58.467Z,7.13
2023-01-31T05:14:28.238Z,9.20
2023-01-31T05:16:55.018Z,9.13
2023-01-31T05:19:24.306Z,10.43
2023-01-31T05:22:00.007Z,9.33
2023-01-31T05:24:34.962Z,5.30
2023-01-31T05:27:04.670Z,7.83
2023-01-31T05:29:35.514Z,7.60
2023-01-31T05:32:04.003Z,7.60
2023-01-31T05:34:33.516Z,7.90
2023-01-31T05:37:04.567Z,5.67
2023-01-31T05:39:32.294Z,5.03
2023-01-31T05:42:01.997Z,7.90
2023-01-31T05:44:32.589Z,9.13
2023-01-31T05:47:01.377Z,8.37
2023-01-31T05:49:34.469Z,7.13
2023-01-31T05:52:03.725Z,10.07
2023-01-31T05:54:33.407Z,12.07
2023-01-31T05:57:00.367Z,9.30
2023-01-31T05:59:30.270Z,6.20
2023-01-31T06:01:57.094Z,8.03
2023-01-31T06:04:26.383Z,7.03
2023-01-31T06:06:55.741Z,7.77
2023-01-31T06:09:22.686Z,15.07
2023-01-31T06:11:49.636Z,6.67
2023-01-31T06:14:19.179Z,7.10
2023-01-31T06:16:46.606Z,6.70
2023-01-31T06:19:13.744Z,7.90
2023-01-31T06:21:40.680Z,8.40
2023-01-31T06:24:07.980Z,5.73
2023-01-31T06:26:37.254Z,7.67
2023-01-31T06:29:08.683Z,8.27
2023-01-31T06:31:37.620Z,6.83
2023-01-31T06:34:07.075Z,5.70
2023-01-31T06:36:34.072Z,5.57
2023-01-31T06:39:08.060Z,12.23
2023-01-31T06:41:37.221Z,8.27
2023-01-31T06:44:08.647Z,8.10
2023-01-31T06:46:36.454Z,8.37
2023-01-31T06:49:08.317Z,9.77
2023-01-31T06:51:37.639Z,11.10
2023-01-31T06:54:09.217Z,5.27
2023-01-31T06:56:38.483Z,5.70
2023-01-31T06:59:10.482Z,7.33
2023-01-31T07:01:37.645Z,5.67
2023-01-31T07:04:04.611Z,7.40
2023-01-31T07:06:31.537Z,9.47
2023-01-31T07:08:58.422Z,6.17
2023-01-31T07:11:25.297Z,7.43
2023-01-31T07:13:54.489Z,8.83
2023-01-31T07:16:25.399Z,8.57
2023-01-31T07:18:57.529Z,7.80
2023-01-31T07:21:30.185Z,6.90
2023-01-31T07:24:02.623Z,6.23
2023-01-31T07:26:30.151Z,10.10
2023-01-31T07:28:56.996Z,9.03
2023-01-31T07:31:26.006Z,6.27
2023-01-31T07:33:52.924Z,5.03
2023-01-31T07:36:24.387Z,10.87
2023-01-31T07:38:57.552Z,14.53
2023-01-31T07:41:25.838Z,9.23
2023-01-31T07:43:57.647Z,7.67
2023-01-31T07:46:27.552Z,7.63
2023-01-31T07:48:56.560Z,13.07
2023-01-31T07:51:28.024Z,6.83
2023-01-31T07:53:59.393Z,6.33
2023-01-31T07:56:30.800Z,6.70
2023-01-31T07:58:59.798Z,7.53
2023-01-31T08:01:48.501Z,10.13
2023-01-31T08:04:24.829Z,6.60
2023-01-31T08:06:55.697Z,6.90
2023-01-31T08:09:24.695Z,7.93
2023-01-31T08:11:52.007Z,7.20
2023-01-31T08:14:25.603Z,9.93
2023-01-31T08:16:53.020Z,7.37
2023-01-31T08:19:24.354Z,10.47
2023-01-31T08:22:00.836Z,8.40
2023-01-31T08:24:35.722Z,10.60
2023-01-31T08:27:02.800Z,10.33
2023-01-31T08:29:31.916Z,8.90
2023-01-31T08:32:05.410Z,12.63
2023-01-31T08:34:34.757Z,7.60
2023-01-31T08:37:04.133Z,8.63
2023-01-31T08:39:33.646Z,9.50
2023-01-31T08:42:02.692Z,8.47
2023-01-31T08:44:29.563Z,8.07
2023-01-31T08:46:56.396Z,10.43
2023-01-31T08:49:23.403Z,12.27
2023-01-31T08:51:50.181Z,9.37
2023-01-31T08:54:17.113Z,11.40
2023-01-31T08:56:44.029Z,10.10
2023-01-31T08:59:13.468Z,8.10
2023-01-31T09:01:42.392Z,8.27
2023-01-31T09:04:09.405Z,9.93
2023-01-31T09:06:38.456Z,10.63
2023-01-31T09:09:05.448Z,11.23
2023-01-31T09:11:35.977Z,10.87
2023-01-31T09:14:03.096Z,10.10
2023-01-31T09:16:34.817Z,14.97
2023-01-31T09:19:02.412Z,13.67
2023-01-31T09:21:38.472Z,13.53
2023-01-31T09:24:11.917Z,13.97
2023-01-31T09:26:38.853Z,13.03
2023-01-31T09:29:05.695Z,13.90
2023-01-31T09:31:35.263Z,15.43
2023-01-31T09:34:07.278Z,12.13
2023-01-31T09:36:34.448Z,12.80
2023-01-31T09:39:03.429Z,13.10
2023-01-31T09:42:19.281Z,11.83
2023-01-31T09:45:13.423Z,13.33
2023-01-31T09:47:52.331Z,13.73
2023-01-31T09:50:30.739Z,12.23
2023-01-31T09:52:58.488Z,9.87
2023-01-31T09:55:37.099Z,14.50
2023-01-31T09:58:28.315Z,11.77
2023-01-31T10:01:01.124Z,13.17
2023-01-31T10:03:51.350Z,13.60
2023-01-31T10:06:30.601Z,15.17
2023-01-31T10:09:02.801Z,10.67
2023-01-31T10:11:46.465Z,10.27
2023-01-31T10:14:34.505Z,12.53
2023-01-31T10:17:07.004Z,11.13
2023-01-31T10:19:45.058Z,11.40
2023-01-31T10:22:43.997Z,8.83
2023-01-31T10:25:25.158Z,8.77
2023-01-31T10:28:08.942Z,9.23
2023-01-31T10:31:02.357Z,10.60
2023-01-31T10:33:47.933Z,9.60
2023-01-31T10:36:46.027Z,11.50
2023-01-31T10:39:32.500Z,11.73
2023-01-31T10:42:02.463Z,10.27
2023-01-31T10:45:01.021Z,13.40
2023-01-31T10:48:01.292Z,8.03
2023-01-31T10:51:07.129Z,12.03
2023-01-31T10:54:20.703Z,9.87
2023-01-31T10:56:50.044Z,13.00
2023-01-31T10:59:29.746Z,13.33
2023-01-31T11:01:56.665Z,12.00
2023-01-31T11:04:58.402Z,10.80
2023-01-31T11:07:31.089Z,13.47
2023-01-31T11:10:00.137Z,9.90
2023-01-31T11:12:54.918Z,9.10
2023-01-31T11:15:26.956Z,13.33
2023-01-31T11:17:59.843Z,11.37
2023-01-31T11:20:44.121Z,13.77
2023-01-31T11:23:23.793Z,8.70
2023-01-31T11:25:58.374Z,10.60
2023-01-31T11:28:40.066Z,12.50
2023-01-31T11:31:20.229Z,11.40
2023-01-31T11:34:01.510Z,13.67
2023-01-31T11:36:46.815Z,11.83
2023-01-31T11:39:35.507Z,11.67
2023-01-31T11:42:14.249Z,8.77
2023-01-31T11:45:01.385Z,12.27
2023-01-31T11:47:33.403Z,7.97
2023-01-31T11:50:06.210Z,8.60
2023-01-31T11:52:38.996Z,10.00
2023-01-31T11:55:11.853Z,10.63
2023-01-31T11:57:44.722Z,12.30
2023-01-31T12:00:27.715Z,9.53
2023-01-31T12:03:15.549Z,11.60
2023-01-31T12:05:51.333Z,8.93
2023-01-31T12:08:41.302Z,9.53
2023-01-31T12:11:22.364Z,9.43
2023-01-31T12:14:08.981Z,9.63
2023-01-31T12:16:38.859Z,8.33
2023-01-31T12:19:14.618Z,8.70
2023-01-31T12:22:15.421Z,7.13
2023-01-31T12:25:06.412Z,10.27
2023-01-31T12:27:42.356Z,9.10
2023-01-31T12:31:25.810Z,7.47
2023-01-31T12:34:29.593Z,10.80
2023-01-31T12:37:38.030Z,8.97
2023-01-31T12:40:27.244Z,6.43
2023-01-31T12:43:03.410Z,7.57
2023-01-31T12:46:09.674Z,9.87
2023-01-31T12:48:56.806Z,15.10
2023-01-31T12:51:36.642Z,8.40
2023-01-31T12:54:38.487Z,5.50
2023-01-31T12:57:40.405Z,5.93
2023-01-31T13:00:39.893Z,9.87
2023-01-31T13:03:33.768Z,6.37
2023-01-31T13:06:24.404Z,13.60
2023-01-31T13:09:08.162Z,10.97
2023-01-31T13:11:44.137Z,10.40
2023-01-31T13:14:23.829Z,10.10
2023-01-31T13:17:01.234Z,9.27
2023-01-31T13:19:39.441Z,12.43
2023-01-31T13:22:22.599Z,10.50
2023-01-31T13:25:01.616Z,9.33
2023-01-31T13:27:40.834Z,11.50
2023-01-31T13:30:23.553Z,10.70
2023-01-31T13:33:01.153Z,9.53
2023-01-31T13:35:40.812Z,10.10
2023-01-31T13:38:16.956Z,12.47
2023-01-31T13:41:05.199Z,10.37
2023-01-31T13:43:32.017Z,10.00
2023-01-31T13:46:13.339Z,8.10
2023-01-31T13:49:03.494Z,8.13
2023-01-31T13:51:44.036Z,7.83
2023-01-31T13:54:10.939Z,8.43
2023-01-31T13:56:47.636Z,9.37
2023-01-31T13:59:25.954Z,11.17
2023-01-31T14:02:01.651Z,10.27
2023-01-31T14:04:31.963Z,6.47
2023-01-31T14:07:06.698Z,9.43
2023-01-31T14:09:41.663Z,8.80
2023-01-31T14:12:17.098Z,9.33
2023-01-31T14:14:55.609Z,11.50
2023-01-31T14:17:27.297Z,9.00
2023-01-31T14:19:57.021Z,12.43
2023-01-31T14:22:38.684Z,9.70
2023-01-31T14:25:14.934Z,8.87
2023-01-31T14:27:55.767Z,11.70
2023-01-31T14:30:41.425Z,8.80
2023-01-31T14:33:13.736Z,8.30
2023-01-31T14:36:15.641Z,9.83
2023-01-31T14:39:16.600Z,7.63
2023-01-31T14:42:29.875Z,9.70
2023-01-31T14:45:15.725Z,8.67
2023-01-31T14:48:20.755Z,7.40
2023-01-31T14:51:23.618Z,9.40
2023-01-31T14:54:12.675Z,11.20
2023-01-31T14:57:15.186Z,9.13
2023-01-31T15:00:03.844Z,8.80
2023-01-31T15:02:33.792Z,10.83
2023-01-31T15:05:37.830Z,8.60
2023-01-31T15:08:19.576Z,6.87
2023-01-31T15:11:42.084Z,11.87
2023-01-31T15:14:37.797Z,7.80
2023-01-31T15:17:36.658Z,7.37
2023-01-31T15:20:25.484Z,9.57
2023-01-31T15:22:59.568Z,13.10
2023-01-31T15:25:46.573Z,8.83
2023-01-31T15:28:21.287Z,8.43
2023-01-31T15:30:53.488Z,12.03
2023-01-31T15:33:32.288Z,11.53
2023-01-31T15:36:13.525Z,7.87
2023-01-31T15:39:02.770Z,11.83
2023-01-31T15:41:45.530Z,7.80
2023-01-31T15:44:29.485Z,10.53
2023-01-31T15:47:03.557Z,8.77
2023-01-31T15:49:40.003Z,13.87
2023-01-31T15:52:15.326Z,8.67
2023-01-31T15:55:19.719Z,6.60
2023-01-31T15:57:59.545Z,9.73
2023-01-31T16:00:34.389Z,8.53
2023-01-31T16:03:10.442Z,8.13
2023-01-31T16:05:40.182Z,10.80
2023-01-31T16:08:32.627Z,9.77
2023-01-31T16:11:04.751Z,12.20
2023-01-31T16:13:38.383Z,12.97
2023-01-31T16:16:10.388Z,13.27
2023-01-31T16:18:47.394Z,7.67
2023-01-31T16:21:24.755Z,7.97
2023-01-31T16:24:06.146Z,11.17
2023-01-31T16:26:38.608Z,8.70
2023-01-31T16:29:20.347Z,7.50
2023-01-31T16:31:55.441Z,11.70
2023-01-31T16:34:36.809Z,7.47
2023-01-31T16:37:09.962Z,7.60
2023-01-31T16:39:50.678Z,8.53
2023-01-31T16:42:22.221Z,8.90
2023-01-31T16:44:52.804Z,6.67
2023-01-31T16:47:42.377Z,9.00
2023-01-31T16:50:32.766Z,7.27
2023-01-31T16:53:34.832Z,8.80
2023-01-31T16:56:13.754Z,8.17
2023-01-31T16:58:50.248Z,9.93
2023-01-31T17:01:25.123Z,9.40
2023-01-31T17:04:11.273Z,7.90
2023-01-31T17:06:39.453Z,8.77
2023-01-31T17:09:18.691Z,6.87
2023-01-31T17:11:48.726Z,7.43
2023-01-31T17:14:17.793Z,7.57
2023-01-31T17:16:50.927Z,6.03
2023-01-31T17:19:20.669Z,5.40
2023-01-31T17:21:49.616Z,7.13
2023-01-31T17:24:22.519Z,5.97
2023-01-31T17:26:54.302Z,6.13
2023-01-31T17:29:21.779Z,4.20
2023-01-31T17:31:50.755Z,4.00
2023-01-31T17:34:19.030Z,6.23
2023-01-31T17:36:46.264Z,5.07
2023-01-31T17:39:17.850Z,6.07
2023-01-31T17:41:49.582Z,7.63
2023-01-31T17:44:16.393Z,4.43
2023-01-31T17:46:49.951Z,7.20
2023-01-31T17:49:21.638Z,3.73
2023-01-31T17:51:48.721Z,4.63
2023-01-31T17:54:20.745Z,4.17
2023-01-31T17:56:52.175Z,3.10
2023-01-31T17:59:27.082Z,3.23
2023-01-31T18:02:00.442Z,5.57
2023-01-31T18:04:32.121Z,3.43
2023-01-31T18:07:03.860Z,5.33
2023-01-31T18:09:30.879Z,3.73
2023-01-31T18:12:00.302Z,2.30
2023-01-31T18:14:27.391Z,3.33
2023-01-31T18:16:56.354Z,3.00
2023-01-31T18:19:30.403Z,2.70
2023-01-31T18:22:00.342Z,2.90
2023-01-31T18:24:30.997Z,3.73
2023-01-31T18:26:58.135Z,2.63
2023-01-31T18:29:26.373Z,2.50
2023-01-31T18:31:56.412Z,2.40
2023-01-31T18:34:24.637Z,2.50
2023-01-31T18:36:51.484Z,2.70
2023-01-31T18:39:18.445Z,2.90
2023-01-31T18:41:49.840Z,4.30
2023-01-31T18:44:16.843Z,2.03
2023-01-31T18:46:48.690Z,3.23
2023-01-31T18:49:15.756Z,2.53
2023-01-31T18:51:46.509Z,2.33
2023-01-31T18:54:15.684Z,2.57
2023-01-31T18:56:43.522Z,1.97
2023-01-31T18:59:10.531Z,2.20
2023-01-31T19:01:37.559Z,2.47
2023-01-31T19:04:09.590Z,2.20
2023-01-31T19:06:38.485Z,1.80
2023-01-31T19:09:09.204Z,1.77
2023-01-31T19:11:36.326Z,1.97
2023-01-31T19:14:07.335Z,2.00
2023-01-31T19:16:40.185Z,1.80
2023-01-31T19:19:15.294Z,2.07
2023-01-31T19:21:42.519Z,3.33
2023-01-31T19:24:14.153Z,2.33
2023-01-31T19:26:44.582Z,1.97
2023-01-31T19:29:16.218Z,2.10
2023-01-31T19:31:47.995Z,1.80
2023-01-31T19:34:19.404Z,4.07
2023-01-31T19:36:51.098Z,3.30
2023-01-31T19:39:22.336Z,2.67
2023-01-31T19:41:53.929Z,2.37
2023-01-31T19:44:25.587Z,2.07
2023-01-31T19:46:54.007Z,2.77
2023-01-31T19:49:25.453Z,1.77
2023-01-31T19:51:54.489Z,2.23
2023-01-31T19:54:23.585Z,3.80
2023-01-31T19:56:50.391Z,2.03
2023-01-31T19:59:20.116Z,1.77
2023-01-31T20:01:49.466Z,3.23
2023-01-31T20:04:20.955Z,2.20
2023-01-31T20:06:49.252Z,2.00
2023-01-31T20:09:19.939Z,1.73
2023-01-31T20:11:51.025Z,2.43
2023-01-31T20:14:17.872Z,1.87
2023-01-31T20:16:47.700Z,2.53
2023-01-31T20:19:18.481Z,2.00
2023-01-31T20:21:53.599Z,1.83
2023-01-31T20:24:22.776Z,1.87
2023-01-31T20:26:49.676Z,2.37
2023-01-31T20:29:23.300Z,2.57
2023-01-31T20:31:52.340Z,2.43
2023-01-31T20:34:21.857Z,2.10
2023-01-31T20:36:53.479Z,3.27
2023-01-31T20:39:25.075Z,3.13
2023-01-31T20:41:57.130Z,2.10
2023-01-31T20:44:27.049Z,2.00
2023-01-31T20:46:58.763Z,1.70
2023-01-31T20:49:28.076Z,2.70
2023-01-31T20:52:02.064Z,2.53
2023-01-31T20:54:32.455Z,2.30
2023-01-31T20:57:04.055Z,1.87
2023-01-31T20:59:30.965Z,2.00
2023-01-31T21:02:00.140Z,2.10
2023-01-31T21:04:31.785Z,2.30
2023-01-31T21:07:00.685Z,1.90
2023-01-31T21:09:29.881Z,3.70
2023-01-31T21:12:01.289Z,1.97
2023-01-31T21:14:30.436Z,2.13
2023-01-31T21:17:02.118Z,2.20
2023-01-31T21:19:29.502Z,2.23
2023-01-31T21:21:58.444Z,1.70
2023-01-31T21:24:25.323Z,2.10
2023-01-31T21:26:54.566Z,2.20
2023-01-31T21:29:21.445Z,2.40
2023-01-31T21:31:49.005Z,2.23
2023-01-31T21:34:19.342Z,2.23
2023-01-31T21:36:46.236Z,2.30
2023-01-31T21:39:17.895Z,2.50
2023-01-31T21:42:04.131Z,3.20
2023-01-31T21:44:31.007Z,2.33
2023-01-31T21:46:59.949Z,2.50
2023-01-31T21:49:26.761Z,2.17
2023-01-31T21:51:53.656Z,2.97
2023-01-31T21:54:20.516Z,2.40
2023-01-31T21:56:47.471Z,3.33
2023-01-31T21:59:19.156Z,2.60
2023-01-31T22:01:46.099Z,2.90
2023-01-31T22:04:20.549Z,2.97
2023-01-31T22:06:48.570Z,2.17
2023-01-31T22:09:16.142Z,2.40
2023-01-31T22:11:50.155Z,3.03
2023-01-31T22:14:17.589Z,2.47
2023-01-31T22:16:51.847Z,3.83
2023-01-31T22:19:20.843Z,3.73
2023-01-31T22:21:52.282Z,2.50
2023-01-31T22:24:21.416Z,2.40
2023-01-31T22:26:50.638Z,2.50
2023-01-31T22:29:20.164Z,2.90
2023-01-31T22:31:49.605Z,2.47
2023-01-31T22:34:17.165Z,2.57
2023-01-31T22:36:46.501Z,2.90
2023-01-31T22:39:17.016Z,2.03
2023-01-31T22:41:46.063Z,3.20
2023-01-31T22:44:12.938Z,2.40
2023-01-31T22:46:39.867Z,2.50
2023-01-31T22:49:11.490Z,2.30
2023-01-31T22:51:38.340Z,2.40
2023-01-31T22:54:10.344Z,3.27
2023-01-31T22:56:37.273Z,5.23
2023-01-31T22:59:09.454Z,4.10
2023-01-31T23:01:42.303Z,3.20
2023-01-31T23:04:11.196Z,2.50
2023-01-31T23:06:38.461Z,2.50
2023-01-31T23:09:10.101Z,4.03
2023-01-31T23:11:39.320Z,3.90
2023-01-31T23:14:13.301Z,2.53
2023-01-31T23:16:58.633Z,3.00
2023-01-31T23:19:25.522Z,2.20
2023-01-31T23:21:56.997Z,2.87
2023-01-31T23:24:24.054Z,2.40
2023-01-31T23:26:54.546Z,2.30
2023-01-31T23:29:23.932Z,3.77
2023-01-31T23:31:50.770Z,2.17
2023-01-31T23:34:22.465Z,4.50
2023-01-31T23:36:51.388Z,2.80
2023-01-31T23:39:20.185Z,4.90
2023-01-31T23:41:47.298Z,2.27
2023-01-31T23:44:16.243Z,2.77
2023-01-31T23:46:47.408Z,2.63
2023-01-31T23:49:19.327Z,2.00
2023-01-31T23:51:48.659Z,3.10
2023-01-31T23:54:15.583Z,2.40
2023-01-31T23:56:44.988Z,2.60
2023-01-31T23:59:14.418Z,4.90
